Ethel, Louisiana
Current Conditions -  °F | °C
As of 8:53 PM on Friday 21 Nov 2014 (Local Time) from KBTR Reporting Station
Few Clouds Few Clouds  
Wind Chill: 58°   Ceiling: Unl
Heat Index: 58°   Visibility: 10mi
Dew Point: 52°   Wind: 9mph
Humidity: 81%   Direction: 110°ESE
Pressure: 30.27"   Gusts: NA
Location:  30.79°N, 91.13°W
Report Text: KBTR 220253Z 11008KT 10SM FEW100 14/11 A3027 RMK AO2 SLP249 T01440111 51008
Loading
Personal Weather Stations






























Interactive Weather Map New forecast layout! Learn more

10-Day Weather Forecast

Advertisements
Track Severe Weather on mobile